createdAt,value
2022-10-18T00:00:20.389Z,80.43
2022-10-18T00:02:47.454Z,80.48
2022-10-18T00:05:14.425Z,80.38
2022-10-18T00:07:41.415Z,80.60
2022-10-18T00:10:09.790Z,80.37
2022-10-18T00:12:38.275Z,80.39
2022-10-18T00:15:07.889Z,79.94
2022-10-18T00:17:36.725Z,80.08
2022-10-18T00:20:06.024Z,80.28
2022-10-18T00:22:39.545Z,80.09
2022-10-18T00:25:08.110Z,79.92
2022-10-18T00:27:35.928Z,79.43
2022-10-18T00:30:03.186Z,79.73
2022-10-18T00:32:30.863Z,79.75
2022-10-18T00:34:58.088Z,79.65
2022-10-18T00:37:25.134Z,79.49
2022-10-18T00:42:30.720Z,79.83
2022-10-18T00:45:13.028Z,79.74
2022-10-18T00:47:40.960Z,79.93
2022-10-18T00:50:09.014Z,79.81
2022-10-18T00:52:41.669Z,79.72
2022-10-18T00:55:10.054Z,80.24
2022-10-18T00:57:38.331Z,80.50
2022-10-18T01:00:10.070Z,80.04
2022-10-18T01:02:40.943Z,80.12
2022-10-18T01:05:13.961Z,80.20
2022-10-18T01:08:24.286Z,79.87
2022-10-18T01:11:09.769Z,79.85
2022-10-18T01:13:57.105Z,79.78
2022-10-18T01:17:08.219Z,79.85
2022-10-18T01:20:37.363Z,79.60
2022-10-18T01:23:43.556Z,80.11
2022-10-18T01:26:35.086Z,79.72
2022-10-18T01:29:41.522Z,80.37
2022-10-18T01:32:25.366Z,79.92
2022-10-18T01:34:59.550Z,80.27
2022-10-18T01:37:29.332Z,80.00
2022-10-18T01:40:00.001Z,80.13
2022-10-18T01:42:27.508Z,79.97
2022-10-18T01:44:54.997Z,79.95
2022-10-18T01:47:23.362Z,80.14
2022-10-18T01:49:56.403Z,80.46
2022-10-18T01:52:23.348Z,80.37
2022-10-18T01:54:50.377Z,80.22
2022-10-18T01:57:36.833Z,80.39
2022-10-18T02:00:25.192Z,80.73
2022-10-18T02:03:26.045Z,80.39
2022-10-18T02:06:17.007Z,79.96
2022-10-18T02:09:16.307Z,79.91
2022-10-18T02:11:46.342Z,80.48
2022-10-18T02:14:16.195Z,80.59
2022-10-18T02:16:53.450Z,80.92
2022-10-18T02:19:29.774Z,80.69
2022-10-18T02:21:58.445Z,80.36
2022-10-18T02:24:34.558Z,80.11
2022-10-18T02:27:02.221Z,80.48
2022-10-18T02:29:30.733Z,80.48
2022-10-18T02:32:24.828Z,80.73
2022-10-18T02:35:10.296Z,81.26
2022-10-18T02:37:40.159Z,81.44
2022-10-18T02:40:10.098Z,81.02
2022-10-18T02:42:44.190Z,81.11
2022-10-18T02:45:13.145Z,80.60
2022-10-18T02:47:40.103Z,80.49
2022-10-18T02:50:07.796Z,80.59
2022-10-18T02:52:34.739Z,81.15
2022-10-18T02:55:01.821Z,80.91
2022-10-18T02:57:29.092Z,80.67
2022-10-18T02:59:56.397Z,80.91
2022-10-18T03:02:23.417Z,80.93
2022-10-18T03:04:50.408Z,81.71
2022-10-18T03:07:17.385Z,81.22
2022-10-18T03:09:44.381Z,81.19
2022-10-18T03:12:11.343Z,81.65
2022-10-18T03:14:38.276Z,81.36
2022-10-18T03:17:05.257Z,81.44
2022-10-18T03:19:32.189Z,81.25
2022-10-18T03:21:59.160Z,81.47
2022-10-18T03:24:26.134Z,81.36
2022-10-18T03:26:53.043Z,81.87
2022-10-18T03:29:19.970Z,81.81
2022-10-18T03:31:47.107Z,81.59
2022-10-18T03:34:15.650Z,81.92
2022-10-18T03:36:42.581Z,81.72
2022-10-18T03:39:12.132Z,81.65
2022-10-18T03:41:39.202Z,82.17
2022-10-18T03:44:06.152Z,81.85
2022-10-18T03:46:33.084Z,81.98
2022-10-18T03:49:00.047Z,81.40
2022-10-18T03:51:26.995Z,81.75
2022-10-18T03:53:53.918Z,81.61
2022-10-18T03:56:20.980Z,81.40
2022-10-18T03:58:48.003Z,81.78
2022-10-18T04:01:14.999Z,81.67
2022-10-18T04:03:41.944Z,81.65
2022-10-18T04:06:09.860Z,81.68
2022-10-18T04:08:36.877Z,81.33
2022-10-18T04:11:11.131Z,81.44
2022-10-18T04:13:38.723Z,81.47
2022-10-18T04:16:05.873Z,81.11
2022-10-18T04:18:32.867Z,81.24
2022-10-18T04:20:59.827Z,81.35
2022-10-18T04:23:26.777Z,81.34
2022-10-18T04:25:53.753Z,81.07
2022-10-18T04:28:20.670Z,81.15
2022-10-18T04:30:54.127Z,81.34
2022-10-18T04:33:21.099Z,81.18
2022-10-18T04:35:51.532Z,81.36
2022-10-18T04:38:19.776Z,80.91
2022-10-18T04:40:46.857Z,81.18
2022-10-18T04:43:13.860Z,81.21
2022-10-18T04:45:40.802Z,81.46
2022-10-18T04:48:08.885Z,81.41
2022-10-18T04:50:35.990Z,81.12
2022-10-18T04:53:14.001Z,81.05
2022-10-18T04:55:50.019Z,81.13
2022-10-18T04:58:18.555Z,80.78
2022-10-18T05:00:45.849Z,81.08
2022-10-18T05:03:13.919Z,80.77
2022-10-18T05:06:00.111Z,80.99
2022-10-18T05:08:28.346Z,81.02
2022-10-18T05:10:55.376Z,81.04
2022-10-18T05:13:22.342Z,80.78
2022-10-18T05:15:49.775Z,81.01
2022-10-18T05:18:16.786Z,81.31
2022-10-18T05:20:43.954Z,80.96
2022-10-18T05:23:11.040Z,81.26
2022-10-18T05:25:40.287Z,80.88
2022-10-18T05:28:15.618Z,81.02
2022-10-18T05:30:48.117Z,80.58
2022-10-18T05:33:15.053Z,80.90
2022-10-18T05:35:42.415Z,81.13
2022-10-18T05:38:09.366Z,80.73
2022-10-18T05:40:39.494Z,81.10
2022-10-18T05:43:06.450Z,81.03
2022-10-18T05:45:33.461Z,81.06
2022-10-18T05:48:00.493Z,81.26
2022-10-18T05:50:27.541Z,81.52
2022-10-18T05:53:06.865Z,81.51
2022-10-18T05:55:39.609Z,81.35
2022-10-18T05:58:06.675Z,81.40
2022-10-18T06:00:33.795Z,81.14
2022-10-18T06:03:00.912Z,81.23
2022-10-18T06:05:28.135Z,81.57
2022-10-18T06:07:56.602Z,81.76
2022-10-18T06:10:23.590Z,81.71
2022-10-18T06:12:50.629Z,81.67
2022-10-18T06:15:20.201Z,81.94
2022-10-18T06:17:47.426Z,81.79
2022-10-18T06:20:14.498Z,81.82
2022-10-18T06:22:41.478Z,81.85
2022-10-18T06:25:09.029Z,81.80
2022-10-18T06:27:35.966Z,81.68
2022-10-18T06:30:03.521Z,81.91
2022-10-18T06:32:30.534Z,82.25
2022-10-18T06:34:57.503Z,82.27
2022-10-18T06:37:24.479Z,82.53
2022-10-18T06:39:51.442Z,82.29
2022-10-18T06:42:20.458Z,82.82
2022-10-18T06:44:49.943Z,82.81
2022-10-18T06:47:16.922Z,82.95
2022-10-18T06:49:43.899Z,82.89
2022-10-18T06:52:10.843Z,83.23
2022-10-18T06:54:37.758Z,82.62
2022-10-18T06:57:04.734Z,83.22
2022-10-18T06:59:31.731Z,82.81
2022-10-18T07:01:58.741Z,82.89
2022-10-18T07:04:29.745Z,83.28
2022-10-18T07:06:56.982Z,83.23
2022-10-18T07:09:24.051Z,83.06
2022-10-18T07:11:52.742Z,83.22
2022-10-18T07:14:19.990Z,83.52
2022-10-18T07:16:46.957Z,83.55
2022-10-18T07:19:14.924Z,83.14
2022-10-18T07:21:41.890Z,83.31
2022-10-18T07:24:08.822Z,83.07
2022-10-18T07:26:36.438Z,83.06
2022-10-18T07:29:11.640Z,83.26
2022-10-18T07:31:39.057Z,83.06
2022-10-18T07:34:08.729Z,82.87
2022-10-18T07:36:35.677Z,82.94
2022-10-18T07:39:02.943Z,83.09
2022-10-18T07:41:31.860Z,82.74
2022-10-18T07:43:59.077Z,83.04
2022-10-18T07:46:26.075Z,83.22
2022-10-18T07:48:53.203Z,82.67
2022-10-18T07:51:21.155Z,82.44
2022-10-18T07:53:48.535Z,82.42
2022-10-18T07:56:21.629Z,82.55
2022-10-18T07:58:54.026Z,82.22
2022-10-18T08:01:25.939Z,82.66
2022-10-18T08:03:53.967Z,82.56
2022-10-18T08:06:22.665Z,82.59
2022-10-18T08:08:49.908Z,82.81
2022-10-18T08:11:23.919Z,82.74
2022-10-18T08:13:52.257Z,82.37
2022-10-18T08:18:59.399Z,83.15
2022-10-18T08:21:26.876Z,83.37
2022-10-18T08:23:53.944Z,83.00
2022-10-18T08:26:22.670Z,83.16
2022-10-18T08:29:03.633Z,82.97
2022-10-18T08:31:37.222Z,83.22
2022-10-18T08:34:04.161Z,83.09
2022-10-18T08:36:31.087Z,84.95
2022-10-18T08:38:58.024Z,83.93
2022-10-18T08:41:37.162Z,83.45
2022-10-18T08:44:22.635Z,83.57
2022-10-18T08:46:55.101Z,83.58
2022-10-18T08:49:29.758Z,83.41
2022-10-18T08:51:58.723Z,83.76
2022-10-18T08:54:52.439Z,82.88
2022-10-18T08:57:20.353Z,85.33
2022-10-18T08:59:47.307Z,83.79
2022-10-18T09:02:28.911Z,83.31
2022-10-18T09:05:01.402Z,84.02
2022-10-18T09:07:46.159Z,83.20
2022-10-18T09:10:43.429Z,83.77
2022-10-18T09:14:03.066Z,83.29
2022-10-18T09:16:55.044Z,84.05
2022-10-18T09:19:55.805Z,83.98
2022-10-18T09:22:35.428Z,83.70
2022-10-18T09:25:10.266Z,84.15
2022-10-18T09:27:52.346Z,84.30
2022-10-18T09:30:41.058Z,84.89
2022-10-18T09:33:28.379Z,84.88
2022-10-18T09:36:03.170Z,85.93
2022-10-18T09:38:44.459Z,85.47
2022-10-18T09:41:26.690Z,85.95
2022-10-18T09:44:25.675Z,86.21
2022-10-18T09:47:01.705Z,85.72
2022-10-18T09:49:45.070Z,86.13
2022-10-18T09:52:21.284Z,85.78
2022-10-18T09:55:23.793Z,85.57
2022-10-18T09:57:56.215Z,86.55
2022-10-18T10:00:44.311Z,86.62
2022-10-18T10:03:16.989Z,87.30
2022-10-18T10:05:45.024Z,87.90
2022-10-18T10:08:12.446Z,87.12
2022-10-18T10:10:46.488Z,87.82
2022-10-18T10:13:17.706Z,88.08
2022-10-18T10:15:57.458Z,87.08
2022-10-18T10:18:54.243Z,87.25
2022-10-18T10:21:22.247Z,87.47
2022-10-18T10:23:59.528Z,87.15
2022-10-18T10:26:34.095Z,87.87
2022-10-18T10:29:01.210Z,87.68
2022-10-18T10:31:32.734Z,87.29
2022-10-18T10:34:13.107Z,86.89
2022-10-18T10:36:52.317Z,87.11
2022-10-18T10:39:22.623Z,87.37
2022-10-18T10:41:58.907Z,87.21
2022-10-18T10:44:30.386Z,87.69
2022-10-18T10:46:57.874Z,87.75
2022-10-18T10:49:48.586Z,86.95
2022-10-18T10:52:36.555Z,86.94
2022-10-18T10:55:30.477Z,86.87
2022-10-18T10:57:53.537Z,87.10
2022-10-18T11:00:43.916Z,86.79
2022-10-18T11:03:34.280Z,86.38
2022-10-18T11:06:01.816Z,86.65
2022-10-18T11:08:37.824Z,86.63
2022-10-18T11:11:38.847Z,86.90
2022-10-18T11:14:30.536Z,86.76
2022-10-18T11:17:27.996Z,87.53
2022-10-18T11:20:20.843Z,87.54
2022-10-18T11:22:56.750Z,88.01
2022-10-18T11:25:34.162Z,87.87
2022-10-18T11:28:29.587Z,88.48
2022-10-18T11:31:14.872Z,88.90
2022-10-18T11:34:10.335Z,89.11
2022-10-18T11:37:22.865Z,89.00
2022-10-18T11:40:24.447Z,89.06
2022-10-18T11:43:57.509Z,88.98
2022-10-18T11:47:20.045Z,89.23
2022-10-18T11:49:50.788Z,89.50
2022-10-18T11:53:04.157Z,90.36
2022-10-18T11:56:01.969Z,90.06
2022-10-18T11:59:11.027Z,89.47
2022-10-18T12:02:17.612Z,90.11
2022-10-18T12:05:18.937Z,88.67
2022-10-18T12:08:34.677Z,86.75
2022-10-18T12:11:26.706Z,88.28
2022-10-18T12:14:02.086Z,88.16
2022-10-18T12:16:50.913Z,87.91
2022-10-18T12:19:27.610Z,88.13
2022-10-18T12:22:02.434Z,88.28
2022-10-18T12:24:31.895Z,88.55
2022-10-18T12:27:01.505Z,88.50
2022-10-18T12:29:44.324Z,88.37
2022-10-18T12:32:19.189Z,88.05
2022-10-18T12:35:00.821Z,87.77
2022-10-18T12:37:55.435Z,87.55
2022-10-18T12:40:42.765Z,87.41
2022-10-18T12:43:18.822Z,87.05
2022-10-18T12:45:58.775Z,87.68
2022-10-18T12:48:39.076Z,86.88
2022-10-18T12:51:20.794Z,87.22
2022-10-18T12:54:02.882Z,87.26
2022-10-18T12:56:29.689Z,86.64
2022-10-18T12:59:15.030Z,86.77
2022-10-18T13:01:50.818Z,86.85
2022-10-18T13:04:32.252Z,86.49
2022-10-18T13:07:04.695Z,86.36
2022-10-18T13:09:44.957Z,86.41
2022-10-18T13:12:14.329Z,86.49
2022-10-18T13:15:25.852Z,86.82
2022-10-18T13:17:59.772Z,86.37
2022-10-18T13:20:48.351Z,87.06
2022-10-18T13:23:42.370Z,87.03
2022-10-18T13:26:43.364Z,87.06
2022-10-18T13:29:58.248Z,86.99
2022-10-18T13:32:47.440Z,86.88
2022-10-18T13:35:54.964Z,86.72
2022-10-18T13:38:38.204Z,86.42
2022-10-18T13:41:21.767Z,86.45
2022-10-18T13:44:03.012Z,86.36
2022-10-18T13:46:32.830Z,86.09
2022-10-18T13:49:39.111Z,86.26
2022-10-18T13:53:08.113Z,86.23
2022-10-18T13:55:56.240Z,85.76
2022-10-18T13:59:15.801Z,86.16
2022-10-18T14:02:50.422Z,86.02
2022-10-18T14:06:10.521Z,85.94
2022-10-18T14:08:56.177Z,85.89
2022-10-18T14:11:35.966Z,85.82
2022-10-18T14:14:50.924Z,86.08
2022-10-18T14:17:42.879Z,86.01
2022-10-18T14:20:49.533Z,86.12
2022-10-18T14:23:34.485Z,85.98
2022-10-18T14:26:20.469Z,85.78
2022-10-18T14:29:07.362Z,85.75
2022-10-18T14:31:35.191Z,85.68
2022-10-18T14:34:03.059Z,85.33
2022-10-18T14:36:40.983Z,85.36
2022-10-18T14:39:23.837Z,85.45
2022-10-18T14:41:53.858Z,85.32
2022-10-18T14:44:31.284Z,85.43
2022-10-18T14:47:15.004Z,85.36
2022-10-18T14:49:46.537Z,85.28
2022-10-18T14:52:18.562Z,85.28
2022-10-18T14:54:46.435Z,85.17
2022-10-18T14:57:34.957Z,85.01
2022-10-18T15:00:17.422Z,85.28
2022-10-18T15:02:44.584Z,85.23
2022-10-18T15:05:25.104Z,84.79
2022-10-18T15:07:53.401Z,85.04
2022-10-18T15:10:33.580Z,84.75
2022-10-18T15:13:09.905Z,84.91
2022-10-18T15:15:38.327Z,84.79
2022-10-18T15:18:06.839Z,84.78
2022-10-18T15:20:42.908Z,84.83
2022-10-18T15:23:26.930Z,84.91
2022-10-18T15:26:12.482Z,84.73
2022-10-18T15:28:51.399Z,84.65
2022-10-18T15:31:30.039Z,84.56
2022-10-18T15:34:18.125Z,84.46
2022-10-18T15:36:45.748Z,84.63
2022-10-18T15:39:22.448Z,84.31
2022-10-18T15:41:57.478Z,84.46
2022-10-18T15:44:51.147Z,84.34
2022-10-18T15:47:21.596Z,84.23
2022-10-18T15:49:54.473Z,84.54
2022-10-18T15:52:40.585Z,84.30
2022-10-18T15:55:29.408Z,84.14
2022-10-18T15:58:11.351Z,84.15
2022-10-18T16:00:38.335Z,84.23
2022-10-18T16:03:09.182Z,84.40
2022-10-18T16:05:38.087Z,84.11
2022-10-18T16:08:05.322Z,84.18
2022-10-18T16:10:32.583Z,83.99
2022-10-18T16:12:59.792Z,84.31
2022-10-18T16:15:26.894Z,84.13
2022-10-18T16:17:53.826Z,84.34
2022-10-18T16:20:23.869Z,84.45
2022-10-18T16:22:50.855Z,84.29
2022-10-18T16:25:18.040Z,83.85
2022-10-18T16:27:44.966Z,84.29
2022-10-18T16:30:20.398Z,84.05
2022-10-18T16:32:48.825Z,83.96
2022-10-18T16:35:15.894Z,84.11
2022-10-18T16:37:43.276Z,84.05
2022-10-18T16:40:24.732Z,84.00
2022-10-18T16:42:52.070Z,84.08
2022-10-18T16:45:19.342Z,84.03
2022-10-18T16:47:46.608Z,84.02
2022-10-18T16:50:18.753Z,83.77
2022-10-18T16:52:45.701Z,84.01
2022-10-18T16:55:24.771Z,84.06
2022-10-18T16:57:52.033Z,83.86
2022-10-18T17:00:22.818Z,84.03
2022-10-18T17:02:50.457Z,84.00
2022-10-18T17:05:18.961Z,84.11
2022-10-18T17:07:46.884Z,83.94
2022-10-18T17:10:20.916Z,83.96
2022-10-18T17:12:47.966Z,83.68
2022-10-18T17:15:14.925Z,83.99
2022-10-18T17:17:42.018Z,83.96
2022-10-18T17:20:16.177Z,83.69
2022-10-18T17:22:43.094Z,83.77
2022-10-18T17:25:10.048Z,83.56
2022-10-18T17:27:37.058Z,83.85
2022-10-18T17:30:04.541Z,83.79
2022-10-18T17:32:31.626Z,83.67
2022-10-18T17:35:00.703Z,83.63
2022-10-18T17:37:27.743Z,83.87
2022-10-18T17:39:54.928Z,83.75
2022-10-18T17:42:21.941Z,83.86
2022-10-18T17:44:49.099Z,83.80
2022-10-18T17:47:16.782Z,83.84
2022-10-18T17:49:44.824Z,83.93
2022-10-18T17:52:11.928Z,83.77
2022-10-18T17:54:38.889Z,83.86
2022-10-18T17:57:05.818Z,83.65
2022-10-18T17:59:33.008Z,83.93
2022-10-18T18:02:00.079Z,83.73
2022-10-18T18:04:27.085Z,83.86
2022-10-18T18:06:54.229Z,83.86
2022-10-18T18:09:21.287Z,83.71
2022-10-18T18:11:49.271Z,83.73
2022-10-18T18:14:16.862Z,83.70
2022-10-18T18:16:46.624Z,83.74
2022-10-18T18:19:14.862Z,83.65
2022-10-18T18:21:42.611Z,84.09
2022-10-18T18:24:10.450Z,83.91
2022-10-18T18:26:40.765Z,83.67
2022-10-18T18:29:08.030Z,83.71
2022-10-18T18:31:38.853Z,83.62
2022-10-18T18:34:07.272Z,83.75
2022-10-18T18:36:34.295Z,83.75
2022-10-18T18:39:01.467Z,83.79
2022-10-18T18:41:29.047Z,83.82
2022-10-18T18:44:05.439Z,85.12
2022-10-18T18:46:38.720Z,86.50
2022-10-18T18:49:07.972Z,85.51
2022-10-18T18:51:37.990Z,85.03
2022-10-18T18:54:05.151Z,84.95
2022-10-18T18:56:32.191Z,84.37
2022-10-18T18:59:00.184Z,84.58
2022-10-18T19:01:30.852Z,84.29
2022-10-18T19:03:58.480Z,83.72
2022-10-18T19:06:41.642Z,83.80
2022-10-18T19:09:25.476Z,84.19
2022-10-18T19:11:54.826Z,84.92
2022-10-18T19:14:24.766Z,85.32
2022-10-18T19:16:59.339Z,85.07
2022-10-18T19:19:29.611Z,85.17
2022-10-18T19:22:03.591Z,84.67
2022-10-18T19:24:31.273Z,85.01
2022-10-18T19:27:05.343Z,84.79
2022-10-18T19:29:38.276Z,84.32
2022-10-18T19:32:08.513Z,84.47
2022-10-18T19:34:35.942Z,84.59
2022-10-18T19:37:03.736Z,84.86
2022-10-18T19:39:33.772Z,84.02
2022-10-18T19:42:04.460Z,84.35
2022-10-18T19:44:34.783Z,84.05
2022-10-18T19:47:02.714Z,84.17
2022-10-18T19:49:29.930Z,84.27
2022-10-18T19:51:57.458Z,84.41
2022-10-18T19:54:24.981Z,84.39
2022-10-18T19:56:51.982Z,84.61
2022-10-18T19:59:19.313Z,84.49
2022-10-18T20:01:46.335Z,84.17
2022-10-18T20:04:14.359Z,84.13
2022-10-18T20:06:41.879Z,84.42
2022-10-18T20:09:13.374Z,84.35
2022-10-18T20:11:43.299Z,84.09
2022-10-18T20:14:10.757Z,84.17
2022-10-18T20:16:37.827Z,84.68
2022-10-18T20:19:07.117Z,84.10
2022-10-18T20:21:35.680Z,83.99
2022-10-18T20:24:07.482Z,84.11
2022-10-18T20:26:35.753Z,84.22
2022-10-18T20:29:03.749Z,84.10
2022-10-18T20:31:35.419Z,84.22
2022-10-18T20:34:06.198Z,83.86
2022-10-18T20:36:33.785Z,83.31
2022-10-18T20:39:01.919Z,84.26
2022-10-18T20:41:33.650Z,84.05
2022-10-18T20:44:04.307Z,84.52
2022-10-18T20:46:34.199Z,84.31
2022-10-18T20:49:01.449Z,84.43
2022-10-18T20:51:28.678Z,84.24
2022-10-18T20:53:56.027Z,84.15
2022-10-18T20:56:26.508Z,84.55
2022-10-18T20:58:56.725Z,84.34
2022-10-18T21:01:33.121Z,84.05
2022-10-18T21:04:06.910Z,84.34
2022-10-18T21:06:40.921Z,84.21
2022-10-18T21:09:14.827Z,83.85
2022-10-18T21:11:44.926Z,84.36
2022-10-18T21:14:21.014Z,84.29
2022-10-18T21:16:49.798Z,84.48
2022-10-18T21:19:19.527Z,84.31
2022-10-18T21:21:50.447Z,84.44
2022-10-18T21:24:19.376Z,84.47
2022-10-18T21:26:47.785Z,84.34
2022-10-18T21:29:20.777Z,84.71
2022-10-18T21:31:49.070Z,84.43
2022-10-18T21:34:17.420Z,84.49
2022-10-18T21:36:47.112Z,84.73
2022-10-18T21:39:20.610Z,84.39
2022-10-18T21:41:49.920Z,84.22
2022-10-18T21:44:18.548Z,84.37
2022-10-18T21:46:46.858Z,84.54
2022-10-18T21:49:14.869Z,84.62
2022-10-18T21:51:42.878Z,84.56
2022-10-18T21:54:15.983Z,84.87
2022-10-18T21:56:43.432Z,85.34
2022-10-18T21:59:13.022Z,85.13
2022-10-18T22:01:40.491Z,84.50
2022-10-18T22:04:25.175Z,84.35
2022-10-18T22:06:52.278Z,84.33
2022-10-18T22:09:21.045Z,84.25
2022-10-18T22:11:52.648Z,84.47
2022-10-18T22:14:21.052Z,84.99
2022-10-18T22:16:48.199Z,84.77
2022-10-18T22:19:15.194Z,85.02
2022-10-18T22:21:42.133Z,85.58
2022-10-18T22:24:09.562Z,85.53
2022-10-18T22:26:39.799Z,86.03
2022-10-18T22:29:33.184Z,86.33
2022-10-18T22:32:01.750Z,85.10
2022-10-18T22:34:28.734Z,85.25
2022-10-18T22:36:56.377Z,85.49
2022-10-18T22:39:24.527Z,85.95
2022-10-18T22:41:55.601Z,85.42
2022-10-18T22:44:22.714Z,85.15
2022-10-18T22:46:49.659Z,84.94
2022-10-18T22:49:16.625Z,85.00
2022-10-18T22:51:43.816Z,85.21
2022-10-18T22:54:11.033Z,84.94
2022-10-18T22:56:38.082Z,84.84
2022-10-18T22:59:05.136Z,84.95
2022-10-18T23:01:32.461Z,84.88
2022-10-18T23:04:00.530Z,84.92
2022-10-18T23:06:34.055Z,84.87
2022-10-18T23:09:05.966Z,84.49
2022-10-18T23:11:35.102Z,84.49
2022-10-18T23:14:03.924Z,84.36
2022-10-18T23:16:31.395Z,84.54
2022-10-18T23:18:59.369Z,84.56
2022-10-18T23:21:28.485Z,84.71
2022-10-18T23:23:56.121Z,84.50
2022-10-18T23:26:26.604Z,84.67
2022-10-18T23:28:54.404Z,84.57
2022-10-18T23:31:29.493Z,84.58
2022-10-18T23:34:00.251Z,84.70
2022-10-18T23:36:27.807Z,83.94
2022-10-18T23:38:55.569Z,84.33
2022-10-18T23:41:23.641Z,84.64
2022-10-18T23:43:50.918Z,84.55
2022-10-18T23:46:18.605Z,84.54
2022-10-18T23:48:46.545Z,84.67
2022-10-18T23:51:14.158Z,84.84
2022-10-18T23:53:41.516Z,84.67
2022-10-18T23:56:15.661Z,84.17
2022-10-18T23:58:44.188Z,84.74
